Time;durP1;ratioP1;P1;durP2;ratioP2;P2;SDS_P1;SDS_P2;PMS_P1;PMS_P2;Temp;Humidity;BMP_temperature;BMP_pressure;BME280_temperature;BME280_humidity;BME280_pressure;Samples;Min_cycle;Max_cycle;Signal;HPM_P1;HPM_P2
2021/03/28 00:03:53;;;;;;;3.97;3.00;;;;;;;7.47;63.88;101427.94;10342262;28;20088;-72
2021/03/28 00:09:25;;;;;;;7.40;3.33;;;;;;;7.56;63.84;101430.13;10344178;28;20334;-70
2021/03/28 00:14:47;;;;;;;5.95;3.22;;;;;;;7.56;64.12;101427.47;10324016;28;20599;-73
2021/03/28 00:20:01;;;;;;;6.38;3.38;;;;;;;7.54;63.53;101429.38;10345360;28;20112;-74
2021/03/28 00:25:09;;;;;;;8.38;3.25;;;;;;;7.63;63.50;101420.94;10321448;28;20054;-74
2021/03/28 00:30:26;;;;;;;7.43;3.90;;;;;;;7.71;63.83;101432.00;10338295;28;20180;-73
2021/03/28 00:35:32;;;;;;;4.18;3.20;;;;;;;7.77;63.25;101437.00;10352601;28;20068;-74
2021/03/28 00:40:34;;;;;;;5.97;2.90;;;;;;;7.64;63.35;101424.44;10380333;28;20420;-74
2021/03/28 00:45:48;;;;;;;5.82;3.38;;;;;;;7.72;62.96;101432.91;10345465;28;20459;-73
2021/03/28 00:50:55;;;;;;;5.97;3.25;;;;;;;7.65;63.28;101423.53;10349686;28;20092;-71
2021/03/28 00:56:05;;;;;;;6.30;3.60;;;;;;;7.65;63.74;101424.38;10355124;28;20070;-73
2021/03/28 01:01:56;;;;;;;6.15;3.15;;;;;;;7.55;63.79;101426.63;10348376;28;20141;-74
2021/03/28 01:07:02;;;;;;;5.72;2.85;;;;;;;7.49;64.04;101426.94;10308035;28;20042;-73
2021/03/28 01:12:15;;;;;;;4.22;2.88;;;;;;;7.51;64.03;101408.31;10351456;28;20093;-73
2021/03/28 01:17:27;;;;;;;4.90;2.95;;;;;;;7.52;64.42;101417.97;10345036;28;20183;-74
2021/03/28 01:22:50;;;;;;;3.53;2.65;;;;;;;7.55;64.43;101431.06;10350787;28;20050;-74
2021/03/28 01:27:53;;;;;;;8.18;3.92;;;;;;;7.50;64.71;101433.09;10350621;28;20046;-74
2021/03/28 01:33:06;;;;;;;5.22;3.70;;;;;;;7.47;64.95;101427.94;10344778;28;20073;-73
2021/03/28 01:38:18;;;;;;;6.85;2.72;;;;;;;7.56;64.92;101428.34;10332353;28;20519;-73
2021/03/28 01:43:22;;;;;;;5.28;3.13;;;;;;;7.71;64.51;101421.41;10343831;28;20123;-73
2021/03/28 01:48:33;;;;;;;6.72;3.00;;;;;;;7.71;64.18;101432.00;10323676;28;20053;-73
2021/03/28 01:54:05;;;;;;;6.70;3.42;;;;;;;7.77;64.52;101433.50;10348852;28;20119;-73
2021/03/28 01:59:09;;;;;;;5.22;3.28;;;;;;;7.82;64.28;101422.69;10352008;28;20085;-74
2021/03/28 02:04:25;;;;;;;7.07;3.73;;;;;;;7.88;64.02;101432.97;10349786;28;20104;-72
2021/03/28 02:10:08;;;;;;;6.60;3.80;;;;;;;7.91;63.94;101428.38;10339077;28;20743;-75
2021/03/28 02:15:29;;;;;;;7.10;3.20;;;;;;;7.74;64.46;101399.22;10319503;28;20493;-72
2021/03/28 02:20:50;;;;;;;7.45;3.85;;;;;;;7.83;64.88;101413.78;10324704;28;20481;-71
2021/03/28 02:26:01;;;;;;;8.38;4.82;;;;;;;7.77;65.44;101428.22;10349481;28;20119;-72
2021/03/28 02:31:21;;;;;;;7.78;4.00;;;;;;;7.77;65.42;101426.41;10339218;28;20520;-73
2021/03/28 02:36:36;;;;;;;7.45;4.28;;;;;;;7.89;65.35;101429.38;10332890;28;20069;-71
2021/03/28 02:42:02;;;;;;;5.93;3.78;;;;;;;7.86;65.39;101418.94;10338735;28;20053;-73
2021/03/28 02:47:04;;;;;;;7.15;4.43;;;;;;;7.96;65.13;101425.50;10348633;28;20077;-73
2021/03/28 02:52:05;;;;;;;8.80;4.13;;;;;;;7.96;65.01;101422.84;10332468;28;20042;-74
2021/03/28 02:57:45;;;;;;;6.60;4.15;;;;;;;7.95;64.87;101418.47;10328715;28;20042;-73
2021/03/28 03:03:14;;;;;;;6.80;4.05;;;;;;;7.91;65.37;101416.91;10285944;28;20056;-72
2021/03/28 03:08:25;;;;;;;6.93;4.10;;;;;;;7.84;65.33;101431.44;10344250;28;20045;-75
2021/03/28 03:14:04;;;;;;;7.40;4.10;;;;;;;7.71;65.98;101429.38;10346624;28;20112;-73
2021/03/28 03:19:17;;;;;;;9.25;4.82;;;;;;;7.65;66.27;101436.78;10339313;28;20049;-73
2021/03/28 03:24:40;;;;;;;7.35;4.07;;;;;;;7.76;65.91;101430.00;10323814;28;20129;-74
2021/03/28 03:30:20;;;;;;;5.53;3.30;;;;;;;7.88;65.24;101422.34;10344966;28;20124;-70
2021/03/28 03:35:36;;;;;;;7.07;3.80;;;;;;;7.84;65.38;101412.88;10325072;28;20072;-73
2021/03/28 03:41:01;;;;;;;8.57;4.60;;;;;;;7.91;65.18;101419.56;10334844;28;20116;-71
2021/03/28 03:46:06;;;;;;;8.80;4.50;;;;;;;7.84;65.28;101416.38;10340086;28;20578;-73
2021/03/28 03:51:37;;;;;;;8.93;4.78;;;;;;;7.96;64.75;101430.81;10341567;28;20127;-74
2021/03/28 03:56:58;;;;;;;8.65;4.55;;;;;;;7.92;65.01;101421.28;10345293;28;20042;-73
2021/03/28 04:02:05;;;;;;;11.40;6.18;;;;;;;7.84;65.03;101426.13;10320753;28;20116;-73
2021/03/28 04:07:28;;;;;;;8.85;4.78;;;;;;;7.89;64.89;101427.59;10335948;28;20073;-73
2021/03/28 04:12:48;;;;;;;9.02;5.25;;;;;;;7.88;64.45;101422.34;10341608;28;20127;-73
2021/03/28 04:18:06;;;;;;;7.70;4.57;;;;;;;7.99;64.66;101425.34;10340105;28;20544;-72
2021/03/28 04:23:25;;;;;;;9.52;4.85;;;;;;;8.05;64.29;101430.31;10325193;28;21361;-73
2021/03/28 04:28:32;;;;;;;6.68;4.60;;;;;;;8.13;64.26;101432.59;10340279;28;20108;-72
2021/03/28 04:34:18;;;;;;;7.40;4.00;;;;;;;8.03;64.50;101428.69;10339554;28;20053;-73
2021/03/28 04:39:53;;;;;;;7.50;3.88;;;;;;;8.02;64.21;101430.50;10248359;28;20628;-74
2021/03/28 04:45:19;;;;;;;9.07;4.60;;;;;;;7.99;64.34;101430.66;10342659;28;20097;-72
2021/03/28 04:50:38;;;;;;;11.38;5.57;;;;;;;7.92;64.90;101429.22;10357500;28;20097;-73
2021/03/28 04:56:02;;;;;;;8.68;4.43;;;;;;;7.88;65.13;101427.66;10370328;28;20100;-72
2021/03/28 05:01:22;;;;;;;7.38;3.72;;;;;;;7.94;65.08;101432.66;10310759;28;20112;-73
2021/03/28 05:06:58;;;;;;;10.57;5.03;;;;;;;7.97;64.78;101438.69;10336894;28;20081;-73
2021/03/28 05:12:32;;;;;;;7.40;4.30;;;;;;;8.01;64.92;101447.31;10315931;28;20315;-71
2021/03/28 05:18:23;;;;;;;6.72;4.03;;;;;;;8.02;64.99;101457.00;10319157;28;20563;-72
2021/03/28 05:23:31;;;;;;;11.02;5.75;;;;;;;8.01;64.91;101449.97;10295533;28;20054;-72
2021/03/28 05:28:56;;;;;;;8.85;4.45;;;;;;;8.03;64.83;101457.84;10339524;28;20445;-73
2021/03/28 05:34:26;;;;;;;9.82;4.75;;;;;;;7.99;64.56;101456.28;10349702;28;20050;-72
2021/03/28 05:39:56;;;;;;;7.95;4.40;;;;;;;8.05;64.87;101450.69;10340221;28;20319;-72
2021/03/28 05:45:26;;;;;;;9.68;5.60;;;;;;;8.02;64.82;101462.31;10338611;28;20088;-72
2021/03/28 05:50:33;;;;;;;8.00;4.72;;;;;;;8.05;64.63;101472.75;10340532;28;20132;-72
2021/03/28 05:55:58;;;;;;;10.55;5.43;;;;;;;7.99;65.00;101446.56;10332453;28;20467;-71
2021/03/28 06:01:02;;;;;;;;;;;;;;;8.06;64.46;101458.56;10333517;28;20249;-70
2021/03/28 06:06:35;;;;;;;8.07;5.45;;;;;;;7.96;64.87;101449.38;10350183;28;19922;-71
2021/03/28 06:11:51;;;;;;;6.78;4.03;;;;;;;8.01;65.36;101484.44;10335630;28;20057;-69
2021/03/28 06:17:15;;;;;;;7.28;4.70;;;;;;;8.10;64.72;101481.31;10350998;28;20323;-72
2021/03/28 06:22:22;;;;;;;8.00;4.60;;;;;;;8.08;65.12;101488.50;10352527;28;20136;-71
2021/03/28 06:28:10;;;;;;;9.95;4.80;;;;;;;8.05;64.84;101499.28;10353463;28;20049;-72
2021/03/28 06:33:50;;;;;;;11.25;5.60;;;;;;;8.03;65.10;101509.13;10351254;28;20120;-72
2021/03/28 06:39:14;;;;;;;8.45;4.78;;;;;;;7.81;65.79;101495.16;10356994;28;20520;-72
2021/03/28 06:44:34;;;;;;;7.78;4.72;;;;;;;7.67;66.43;101501.16;10356960;28;20118;-76
2021/03/28 06:50:07;;;;;;;7.05;4.35;;;;;;;7.88;65.41;101507.19;10353824;28;20129;-75
2021/03/28 06:55:33;;;;;;;8.35;4.57;;;;;;;8.02;64.65;101504.72;10332420;28;20144;-73
2021/03/28 07:01:02;;;;;;;7.32;4.50;;;;;;;8.08;64.90;101515.03;10335171;28;20141;-74
2021/03/28 07:06:31;;;;;;;8.25;5.25;;;;;;;8.15;64.59;101528.84;10332223;28;20547;-73
2021/03/28 07:11:39;;;;;;;9.23;5.28;;;;;;;8.32;63.56;101538.63;10347652;28;20116;-72
2021/03/28 07:16:54;;;;;;;8.68;4.90;;;;;;;8.56;62.99;101535.69;10332012;28;20180;-71
2021/03/28 07:22:12;;;;;;;8.90;5.95;;;;;;;8.74;61.68;101532.06;10345535;28;20109;-73
2021/03/28 07:27:42;;;;;;;12.73;6.63;;;;;;;8.89;61.61;101524.22;10346083;28;20245;-73
2021/03/28 07:33:01;;;;;;;9.73;6.93;;;;;;;9.12;61.08;101529.16;10331423;28;20053;-75
2021/03/28 07:38:17;;;;;;;11.15;6.32;;;;;;;9.41;59.55;101529.34;10334362;28;20468;-75
2021/03/28 07:43:37;;;;;;;11.85;6.85;;;;;;;9.53;59.00;101544.66;10347575;28;20042;-72
2021/03/28 07:49:06;;;;;;;8.18;6.18;;;;;;;9.63;58.31;101544.97;10346204;28;20061;-71
2021/03/28 07:54:39;;;;;;;10.70;6.25;;;;;;;9.69;57.52;101539.31;10345685;28;20471;-72
2021/03/28 08:00:11;;;;;;;12.65;6.20;;;;;;;10.01;57.00;101533.09;10347896;28;20535;-73
2021/03/28 08:05:24;;;;;;;8.95;6.45;;;;;;;10.24;56.08;101545.94;10354856;28;20364;-75
2021/03/28 08:10:54;;;;;;;11.07;6.03;;;;;;;10.41;55.71;101538.78;10348421;28;20069;-72
2021/03/28 08:16:13;;;;;;;7.45;5.72;;;;;;;10.64;54.61;101526.75;10340702;28;20145;-70
2021/03/28 08:21:33;;;;;;;9.50;6.68;;;;;;;10.79;53.72;101535.63;10343835;28;20176;-72
2021/03/28 08:27:11;;;;;;;12.30;7.22;;;;;;;11.12;52.89;101532.69;10344909;28;20053;-75
2021/03/28 08:32:35;;;;;;;10.77;6.88;;;;;;;11.48;52.58;101501.13;10342948;28;20052;-75
2021/03/28 08:38:07;;;;;;;17.63;7.55;;;;;;;12.07;50.46;101514.22;10341912;28;20346;-74
2021/03/28 08:43:33;;;;;;;13.15;6.82;;;;;;;11.87;49.72;101512.81;10344054;28;20121;-75
2021/03/28 08:49:04;;;;;;;12.38;6.32;;;;;;;12.09;49.72;101517.63;10344595;28;20075;-75
2021/03/28 08:54:11;;;;;;;9.15;5.90;;;;;;;12.45;49.01;101515.25;10327910;28;20716;-73
2021/03/28 08:59:27;;;;;;;11.93;6.63;;;;;;;12.76;47.87;101531.81;10333202;28;20050;-75
2021/03/28 09:05:10;;;;;;;11.65;6.55;;;;;;;12.70;47.71;101517.94;10376316;28;20053;-77
2021/03/28 09:10:24;;;;;;;10.73;7.35;;;;;;;13.12;46.99;101522.16;10355295;28;20336;-75
2021/03/28 09:15:25;;;;;;;;;;;;;;;14.01;45.30;101505.00;10360128;28;20488;-76
2021/03/28 09:20:30;;;;;;;8.40;6.13;;;;;;;13.81;45.37;101505.63;10358390;28;19936;-75
2021/03/28 09:25:39;;;;;;;8.45;5.07;;;;;;;14.13;44.45;101508.59;10367600;28;20097;-75
2021/03/28 09:30:51;;;;;;;7.40;4.63;;;;;;;14.11;44.68;101503.34;10347679;28;20053;-76
2021/03/28 09:35:52;;;;;;;6.75;3.90;;;;;;;14.62;42.95;101502.19;10360687;28;20057;-76
2021/03/28 09:40:59;;;;;;;6.45;3.83;;;;;;;14.57;42.93;101500.78;10359806;28;20278;-74
2021/03/28 09:46:34;;;;;;;6.82;4.78;;;;;;;14.89;41.68;101500.13;10342689;28;20050;-75
2021/03/28 09:51:57;;;;;;;8.82;4.95;;;;;;;15.17;40.99;101514.88;10360212;28;20048;-73
2021/03/28 09:57:27;;;;;;;8.32;5.03;;;;;;;15.89;39.04;101509.00;10361431;28;20469;-73
2021/03/28 10:03:20;;;;;;;9.90;5.07;;;;;;;16.04;39.17;101508.72;10358007;28;20481;-75
2021/03/28 10:08:24;;;;;;;7.78;3.80;;;;;;;16.61;38.30;101485.91;10316329;28;20056;-70
2021/03/28 10:13:25;;;;;;;;;;;;;;;17.71;36.82;101488.88;10357531;28;20144;-72
2021/03/28 10:18:38;;;;;;;7.70;3.88;;;;;;;16.58;37.33;101496.94;10346392;28;20308;-70
2021/03/28 10:23:48;;;;;;;7.07;4.18;;;;;;;15.60;38.98;101500.66;10354613;28;20471;-72
2021/03/28 10:29:00;;;;;;;6.18;3.88;;;;;;;16.51;37.46;101497.59;10358335;28;20061;-75
2021/03/28 10:34:13;;;;;;;6.32;3.60;;;;;;;15.27;40.26;101493.53;10352841;28;20038;-75
2021/03/28 10:39:38;;;;;;;5.95;3.95;;;;;;;14.67;42.12;101497.28;10349919;28;20531;-73
2021/03/28 10:45:16;;;;;;;8.52;4.75;;;;;;;17.20;38.80;101480.81;10346288;28;20046;-73
2021/03/28 10:50:48;;;;;;;6.22;3.35;;;;;;;23.63;27.72;101473.63;10354374;28;20220;-72
2021/03/28 10:55:56;;;;;;;7.88;2.97;;;;;;;23.18;24.91;101466.22;10348890;28;20050;-73
2021/03/28 11:01:34;;;;;;;6.28;2.10;;;;;;;25.16;22.25;101454.47;10332550;28;20087;-73
2021/03/28 11:07:12;;;;;;;4.60;2.30;;;;;;;27.64;17.70;101460.72;10351013;28;20042;-74
2021/03/28 11:13:03;;;;;;;4.00;1.63;;;;;;;23.64;22.14;101453.59;10355531;28;20053;-75
2021/03/28 11:18:46;;;;;;;4.05;2.10;;;;;;;20.62;25.34;101443.50;10283481;28;20213;-73
2021/03/28 11:24:18;;;;;;;3.20;1.08;;;;;;;19.63;25.62;101440.03;10260969;28;20489;-73
2021/03/28 11:29:48;;;;;;;4.60;1.48;;;;;;;20.86;24.13;101428.44;10326394;28;20042;-73
2021/03/28 11:35:15;;;;;;;4.43;1.40;;;;;;;18.97;25.87;101428.50;10349898;28;20133;-76
2021/03/28 11:40:16;;;;;;;4.00;2.22;;;;;;;17.76;28.35;101421.97;10352852;28;20296;-76
2021/03/28 11:45:42;;;;;;;4.70;1.85;;;;;;;18.30;28.23;101428.59;10352035;28;20050;-75
2021/03/28 11:51:24;;;;;;;3.95;2.25;;;;;;;17.54;29.32;101423.09;10333771;28;20064;-74
2021/03/28 11:56:44;;;;;;;6.63;2.30;;;;;;;17.25;30.19;101414.00;10349295;28;20123;-74
2021/03/28 12:01:54;;;;;;;3.60;1.40;;;;;;;18.75;28.01;101407.28;10346885;28;20092;-76
2021/03/28 12:07:19;;;;;;;5.97;1.50;;;;;;;20.71;25.36;101414.69;10328498;28;20113;-75
2021/03/28 12:12:37;;;;;;;4.60;2.03;;;;;;;19.53;26.76;101410.41;10362204;28;20509;-74
2021/03/28 12:17:39;;;;;;;4.38;2.08;;;;;;;22.03;23.92;101396.81;10347195;28;20128;-73
2021/03/28 12:22:50;;;;;;;6.00;2.58;;;;;;;26.38;19.28;101399.00;10332555;28;20088;-76
2021/03/28 12:27:57;;;;;;;6.00;2.35;;;;;;;24.90;19.96;101395.91;10333501;28;20132;-77
2021/03/28 12:33:09;;;;;;;4.53;1.55;;;;;;;31.05;14.52;101402.34;10337077;28;20576;-75
2021/03/28 12:38:19;;;;;;;4.85;1.92;;;;;;;31.25;13.87;101386.41;10349588;28;20153;-76
2021/03/28 12:43:32;;;;;;;5.18;1.88;;;;;;;31.14;14.40;101368.00;10333228;28;20496;-79
2021/03/28 12:48:37;;;;;;;3.70;1.73;;;;;;;31.80;13.85;101362.50;10347058;28;20117;-79
2021/03/28 12:53:38;;;;;;;3.65;1.70;;;;;;;34.22;12.46;101353.34;10348813;28;20085;-75
2021/03/28 12:58:42;;;;;;;4.75;1.83;;;;;;;33.70;12.05;101352.56;10344928;28;20060;-76
2021/03/28 13:03:47;;;;;;;2.63;1.48;;;;;;;33.80;12.02;101360.19;10330267;28;20129;-77
2021/03/28 13:09:18;;;;;;;4.63;1.65;;;;;;;30.41;13.91;101342.28;10351104;28;20634;-79
2021/03/28 13:14:42;;;;;;;3.28;1.27;;;;;;;31.08;13.77;101335.94;10355433;28;20096;-78
2021/03/28 13:19:49;;;;;;;5.40;1.52;;;;;;;25.90;18.00;101344.31;10381643;28;20034;-77
2021/03/28 13:25:04;;;;;;;4.07;2.10;;;;;;;25.33;18.88;101335.22;10390336;28;20133;-76
2021/03/28 13:30:07;;;;;;;4.53;1.33;;;;;;;24.31;20.30;101334.19;10350818;28;20051;-74
2021/03/28 13:35:27;;;;;;;4.78;1.85;;;;;;;22.71;21.65;101324.09;10358510;28;20127;-75
2021/03/28 13:40:48;;;;;;;4.82;2.03;;;;;;;21.36;23.35;101338.19;10352363;28;20128;-75
2021/03/28 13:45:51;;;;;;;5.10;2.15;;;;;;;20.89;24.04;101331.53;10333352;28;22332;-71
2021/03/28 13:51:00;;;;;;;5.20;2.58;;;;;;;20.17;25.26;101317.53;10347686;28;20476;-73
2021/03/28 13:56:19;;;;;;;3.40;1.75;;;;;;;20.19;25.43;101320.91;10347966;28;20061;-74
2021/03/28 14:01:44;;;;;;;5.57;1.98;;;;;;;20.30;25.41;101317.94;10333582;28;20113;-73
2021/03/28 14:06:47;;;;;;;3.55;1.38;;;;;;;19.71;26.26;101307.75;10338437;28;20061;-75
2021/03/28 14:11:47;;;;;;;3.27;1.93;;;;;;;19.50;26.47;101310.81;10362741;28;20053;-75
2021/03/28 14:16:54;;;;;;;5.38;1.77;;;;;;;19.38;26.97;101302.09;10343632;28;20476;-73
2021/03/28 14:22:20;;;;;;;5.07;1.67;;;;;;;19.83;26.21;101304.81;10345777;28;20052;-75
2021/03/28 14:27:26;;;;;;;3.13;1.65;;;;;;;19.73;26.25;101311.13;10346554;28;20416;-74
2021/03/28 14:32:37;;;;;;;3.67;1.40;;;;;;;19.45;26.40;101296.91;10338284;28;20084;-74
2021/03/28 14:38:24;;;;;;;5.88;1.85;;;;;;;18.75;26.95;101297.59;10362484;28;20061;-74
2021/03/28 14:43:48;;;;;;;4.93;2.22;;;;;;;18.09;28.09;101304.00;10358647;28;20099;-75
2021/03/28 14:49:13;;;;;;;3.78;1.90;;;;;;;17.89;28.56;101309.44;10360804;28;20096;-75
2021/03/28 14:54:34;;;;;;;4.38;1.50;;;;;;;17.47;29.31;101304.38;10361913;28;20116;-75
2021/03/28 14:59:53;;;;;;;4.47;1.95;;;;;;;17.11;30.01;101293.34;10370397;28;20560;-73
2021/03/28 15:05:14;;;;;;;2.78;1.42;;;;;;;17.39;30.57;101290.81;10340869;28;20061;-75
2021/03/28 15:10:36;;;;;;;4.68;1.50;;;;;;;17.64;29.69;101283.97;10360006;28;20161;-74
2021/03/28 15:15:43;;;;;;;2.72;1.27;;;;;;;17.89;29.48;101287.88;10359565;28;20049;-73
2021/03/28 15:20:55;;;;;;;3.72;1.42;;;;;;;17.85;29.55;101279.22;10341084;28;20129;-73
2021/03/28 15:26:21;;;;;;;3.35;1.73;;;;;;;17.56;29.36;101286.53;10339867;28;20127;-73
2021/03/28 15:31:43;;;;;;;3.80;1.55;;;;;;;17.34;29.51;101271.53;10360055;28;20064;-72
2021/03/28 15:37:10;;;;;;;4.72;1.30;;;;;;;17.22;29.74;101285.13;10355399;28;20520;-74
2021/03/28 15:42:29;;;;;;;3.20;1.00;;;;;;;16.97;29.86;101265.03;10356380;28;20398;-75
2021/03/28 15:47:36;;;;;;;3.95;1.77;;;;;;;16.77;30.25;101281.09;10343910;28;20128;-75
2021/03/28 15:53:10;;;;;;;5.10;1.70;;;;;;;16.65;30.76;101276.84;10352760;28;20390;-74
2021/03/28 15:58:32;;;;;;;4.20;1.60;;;;;;;16.40;31.13;101270.13;10347819;28;20112;-74
2021/03/28 16:03:52;;;;;;;4.70;1.48;;;;;;;16.24;31.21;101266.13;10358024;28;20332;-74
2021/03/28 16:09:06;;;;;;;4.72;1.27;;;;;;;15.99;31.87;101248.63;10335532;28;20050;-74
2021/03/28 16:14:35;;;;;;;4.82;1.85;;;;;;;15.83;32.50;101254.47;10356587;28;20130;-76
2021/03/28 16:20:16;;;;;;;4.22;1.63;;;;;;;15.68;32.45;101245.03;10353032;28;20049;-76
2021/03/28 16:25:35;;;;;;;5.85;1.70;;;;;;;15.67;32.47;101259.44;10358238;28;20049;-75
2021/03/28 16:30:46;;;;;;;4.18;1.50;;;;;;;15.58;33.00;101260.25;10344855;28;20161;-74
2021/03/28 16:36:05;;;;;;;4.82;1.98;;;;;;;15.63;32.87;101248.13;10356896;28;20503;-76
2021/03/28 16:41:28;;;;;;;5.38;2.25;;;;;;;15.56;33.03;101258.53;10351338;28;20128;-74
2021/03/28 16:46:39;;;;;;;4.97;1.80;;;;;;;15.53;33.35;101258.78;10350825;28;20107;-73
2021/03/28 16:51:48;;;;;;;3.35;1.60;;;;;;;15.32;33.44;101255.25;10355506;28;20816;-75
2021/03/28 16:57:01;;;;;;;5.95;2.17;;;;;;;15.26;33.74;101270.03;10335499;28;20066;-74
2021/03/28 17:02:21;;;;;;;5.50;1.70;;;;;;;15.16;33.89;101256.56;10357515;28;20113;-75
2021/03/28 17:07:25;;;;;;;5.03;1.83;;;;;;;15.12;34.06;101255.13;10348953;28;20050;-75
2021/03/28 17:12:35;;;;;;;6.87;2.00;;;;;;;15.09;34.26;101260.75;10361106;28;20058;-75
2021/03/28 17:17:41;;;;;;;3.65;1.80;;;;;;;14.97;34.71;101256.41;10354841;28;20050;-76
2021/03/28 17:22:58;;;;;;;3.50;2.00;;;;;;;14.98;34.77;101271.50;10331361;28;20070;-75
2021/03/28 17:28:12;;;;;;;6.05;2.10;;;;;;;14.87;34.83;101274.22;10366509;28;20120;-72
2021/03/28 17:33:41;;;;;;;3.67;1.88;;;;;;;14.85;35.08;101285.91;10363621;28;20042;-74
2021/03/28 17:39:12;;;;;;;5.47;1.85;;;;;;;14.81;35.05;101289.81;10365282;28;20065;-71
2021/03/28 17:44:19;;;;;;;6.88;2.22;;;;;;;14.76;35.14;101297.41;10359251;28;20127;-71
2021/03/28 17:49:49;;;;;;;3.20;1.67;;;;;;;14.63;35.60;101294.00;10351252;28;20554;-72
2021/03/28 17:55:16;;;;;;;4.22;1.65;;;;;;;14.70;35.59;101299.72;10344904;28;20111;-69
2021/03/28 18:00:17;;;;;;;4.93;2.10;;;;;;;14.64;35.73;101299.25;10360802;28;20276;-70
2021/03/28 18:05:22;;;;;;;6.25;2.10;;;;;;;14.60;35.76;101299.59;10395781;28;20084;-73
2021/03/28 18:11:04;;;;;;;6.07;1.90;;;;;;;14.63;35.89;101307.41;10376681;28;20487;-69
2021/03/28 18:16:07;;;;;;;7.07;2.17;;;;;;;14.58;36.11;101309.59;10357532;28;20184;-72
2021/03/28 18:21:47;;;;;;;6.45;1.88;;;;;;;14.52;36.11;101318.09;10338806;28;20046;-71
2021/03/28 18:26:51;;;;;;;4.22;1.88;;;;;;;14.50;36.21;101332.47;10246045;28;20065;-71
2021/03/28 18:31:57;;;;;;;5.90;2.83;;;;;;;14.50;36.29;101324.44;10359957;28;20112;-71
2021/03/28 18:37:16;;;;;;;6.78;2.65;;;;;;;14.50;36.31;101332.47;10344915;28;20057;-70
2021/03/28 18:42:25;;;;;;;4.53;2.28;;;;;;;14.48;36.40;101347.81;10346027;28;20116;-71
2021/03/28 18:47:32;;;;;;;5.15;2.33;;;;;;;14.43;36.49;101350.00;10363498;28;20057;-71
2021/03/28 18:52:33;;;;;;;3.75;1.92;;;;;;;14.40;36.67;101354.78;10361198;28;20123;-72
2021/03/28 18:57:48;;;;;;;4.88;2.10;;;;;;;14.41;36.42;101361.81;10361442;28;20066;-72
2021/03/28 19:02:56;;;;;;;4.60;1.50;;;;;;;14.41;36.56;101362.69;10360343;28;20125;-69
2021/03/28 19:07:59;;;;;;;4.45;1.88;;;;;;;14.33;36.94;101354.38;10338642;28;20677;-70
2021/03/28 19:13:08;;;;;;;6.35;2.78;;;;;;;14.23;36.88;101351.59;10353461;28;20511;-71
2021/03/28 19:18:23;;;;;;;4.97;1.95;;;;;;;14.25;37.08;101367.56;10356337;28;20135;-70
2021/03/28 19:23:46;;;;;;;5.40;2.25;;;;;;;14.31;38.07;101369.75;10362672;28;20060;-71
2021/03/28 19:28:51;;;;;;;5.28;1.92;;;;;;;14.20;37.67;101370.59;10355345;28;20045;-72
2021/03/28 19:33:57;;;;;;;5.47;1.95;;;;;;;14.18;38.08;101372.50;10355021;28;20454;-70
2021/03/28 19:39:00;;;;;;;6.22;2.05;;;;;;;14.11;37.73;101366.81;10357037;28;20081;-70
2021/03/28 19:44:19;;;;;;;5.40;2.22;;;;;;;14.13;38.03;101378.22;10355245;28;20081;-73
2021/03/28 19:49:27;;;;;;;5.82;2.13;;;;;;;14.15;38.19;101388.81;10338079;28;20050;-71
2021/03/28 19:54:41;;;;;;;6.28;1.77;;;;;;;14.11;38.08;101390.91;10355196;28;20131;-72
2021/03/28 19:59:51;;;;;;;3.78;1.83;;;;;;;13.99;38.28;101389.19;10353008;28;20538;-71
2021/03/28 20:05:30;;;;;;;5.80;2.25;;;;;;;14.06;38.55;101400.25;10358143;28;20049;-71
2021/03/28 20:10:32;;;;;;;7.82;2.25;;;;;;;14.04;38.71;101405.72;10352219;28;20160;-72
2021/03/28 20:15:33;;;;;;;5.10;1.98;;;;;;;14.02;38.47;101396.97;10353270;28;20167;-70
2021/03/28 20:20:35;;;;;;;6.15;2.05;;;;;;;14.02;38.26;101409.47;10344953;28;20057;-74
2021/03/28 20:25:37;;;;;;;5.18;1.92;;;;;;;13.94;38.31;101420.78;10368080;22;20103;-57
2021/03/28 20:31:10;;;;;;;5.72;2.50;;;;;;;13.85;38.76;101413.44;10338744;28;20053;-57
2021/03/28 20:36:15;;;;;;;5.82;2.33;;;;;;;13.77;38.71;101409.53;10334984;28;20080;-56
2021/03/28 20:41:18;;;;;;;5.22;2.35;;;;;;;13.66;39.10;101398.81;10336821;28;20046;-57
2021/03/28 20:46:22;;;;;;;4.47;2.35;;;;;;;13.71;39.05;101412.66;10346672;28;20119;-57
2021/03/28 20:51:25;;;;;;;;;;;;;;;13.62;39.35;101418.72;10348503;28;20101;-59
2021/03/28 20:56:29;;;;;;;4.53;2.67;;;;;;;13.55;39.29;101414.78;10341830;28;19921;-57
2021/03/28 21:01:38;;;;;;;5.20;2.50;;;;;;;13.50;39.60;101419.63;10326492;28;20128;-57
2021/03/28 21:06:46;;;;;;;5.47;1.90;;;;;;;13.32;39.76;101403.09;10356275;28;20095;-57
2021/03/28 21:11:48;;;;;;;3.55;2.17;;;;;;;13.36;39.99;101424.19;10353985;28;20052;-57
2021/03/28 21:16:54;;;;;;;5.65;2.55;;;;;;;13.28;40.25;101415.81;10357797;28;20103;-58
2021/03/28 21:21:55;;;;;;;3.25;2.20;;;;;;;13.30;40.67;101429.09;10350217;28;20131;-59
2021/03/28 21:27:00;;;;;;;7.97;2.92;;;;;;;13.22;41.26;101437.66;10346968;28;20053;-56
2021/03/28 21:32:03;;;;;;;5.45;2.97;;;;;;;13.11;41.46;101426.91;10352820;28;20057;-58
2021/03/28 21:37:05;;;;;;;6.30;3.08;;;;;;;13.11;41.78;101437.63;10334718;28;22261;-60
2021/03/28 21:42:08;;;;;;;6.57;3.35;;;;;;;13.04;42.08;101443.38;10346644;28;20054;-57
2021/03/28 21:47:24;;;;;;;4.15;2.40;;;;;;;12.93;42.53;101437.13;10356930;28;20132;-57
2021/03/28 21:52:38;;;;;;;5.57;2.10;;;;;;;12.84;42.74;101436.81;10341756;28;20062;-55
2021/03/28 21:57:39;;;;;;;4.10;2.10;;;;;;;12.68;42.73;101429.00;10350976;28;20037;-57
2021/03/28 22:02:40;;;;;;;6.97;2.38;;;;;;;12.52;42.91;101431.91;10334800;28;20053;-57
2021/03/28 22:07:52;;;;;;;5.40;2.50;;;;;;;12.61;42.96;101451.78;10352752;28;20053;-56
2021/03/28 22:12:53;;;;;;;5.25;2.60;;;;;;;12.58;42.83;101460.03;10351702;28;20053;-57
2021/03/28 22:17:55;;;;;;;4.43;2.80;;;;;;;12.49;43.07;101463.31;10348721;28;20057;-58
2021/03/28 22:23:00;;;;;;;3.75;2.35;;;;;;;12.41;43.21;101455.00;10353084;28;20104;-57
2021/03/28 22:28:10;;;;;;;5.32;2.50;;;;;;;12.42;43.52;101464.72;10349592;28;20656;-57
2021/03/28 22:33:17;;;;;;;5.10;2.38;;;;;;;12.43;43.46;101463.75;10347364;28;20073;-57
2021/03/28 22:38:18;;;;;;;6.40;2.70;;;;;;;12.44;43.17;101460.97;10351097;28;20701;-59
2021/03/28 22:43:26;;;;;;;4.50;2.30;;;;;;;12.23;43.34;101452.63;10341647;28;20157;-59
2021/03/28 22:48:29;;;;;;;8.30;3.25;;;;;;;12.22;43.88;101472.28;10347457;28;20087;-58
2021/03/28 22:53:31;;;;;;;5.68;2.97;;;;;;;12.14;43.95;101451.41;10342595;28;20052;-57
2021/03/28 22:58:37;;;;;;;5.55;2.60;;;;;;;12.17;43.90;101456.59;10350634;28;20050;-57
2021/03/28 23:03:46;;;;;;;7.10;2.53;;;;;;;12.07;44.21;101467.97;10350877;28;20050;-58
2021/03/28 23:08:53;;;;;;;6.63;2.90;;;;;;;11.98;44.54;101478.31;10351059;28;20069;-57
2021/03/28 23:13:54;;;;;;;9.30;2.50;;;;;;;11.89;44.52;101462.88;10349870;28;20092;-57
2021/03/28 23:18:59;;;;;;;5.55;2.92;;;;;;;11.97;44.60;101481.94;10346795;28;20139;-57
2021/03/28 23:24:00;;;;;;;5.60;2.58;;;;;;;11.87;44.52;101486.13;10346986;28;20056;-56
2021/03/28 23:29:01;;;;;;;6.80;2.63;;;;;;;11.83;44.52;101485.50;10345697;28;20059;-56
2021/03/28 23:34:02;;;;;;;5.70;2.60;;;;;;;11.79;44.80;101483.13;10342826;28;20100;-55
2021/03/28 23:39:04;;;;;;;6.68;2.45;;;;;;;11.65;45.15;101484.88;10345265;28;20142;-56
2021/03/28 23:44:41;;;;;;;6.57;2.88;;;;;;;11.56;44.98;101495.28;10344243;28;20557;-56
2021/03/28 23:49:52;;;;;;;4.35;2.63;;;;;;;11.51;45.51;101490.25;10300571;28;20494;-56
2021/03/28 23:54:54;;;;;;;4.18;2.40;;;;;;;11.48;45.44;101491.34;10338967;28;20053;-57
2021/03/28 23:59:55;;;;;;;8.38;3.03;;;;;;;11.51;45.54;101498.25;10348259;28;20135;-56
